Time;durP1;ratioP1;P1;durP2;ratioP2;P2;SDS_P1;SDS_P2;PMS_P1;PMS_P2;Temp;Humidity;BMP_temperature;BMP_pressure;BME280_temperature;BME280_humidity;BME280_pressure;Samples;Min_cycle;Max_cycle;Signal;HPM_P1;HPM_P2
2022/12/05 00:00:11;;;;;;;;;;;5.90;99.90;;;;;;5016660;28;19921;-64
2022/12/05 00:02:37;;;;;;;;;;;5.90;99.90;;;;;;5017547;28;19925;-64
2022/12/05 00:05:03;;;;;;;;;;;5.90;99.90;;;;;;5028566;28;19925;-64
2022/12/05 00:07:28;;;;;;;;;;;5.90;99.90;;;;;;5027832;28;19931;-65
2022/12/05 00:09:54;;;;;;;;;;;5.90;99.90;;;;;;5018015;28;20327;-64
2022/12/05 00:12:20;;;;;;;;;;;5.90;99.90;;;;;;5023376;28;19921;-64
2022/12/05 00:14:45;;;;;;;;;;;5.90;99.90;;;;;;5028292;28;19978;-64
2022/12/05 00:17:11;;;;;;;;;;;5.90;99.90;;;;;;5022930;28;20438;-64
2022/12/05 00:19:37;;;;;;;;;;;5.90;99.90;;;;;;5014193;28;19953;-64
2022/12/05 00:22:03;;;;;;;;;;;5.90;99.90;;;;;;5025963;28;19932;-64
2022/12/05 00:24:28;;;;;;;;;;;5.90;99.90;;;;;;5028284;28;20373;-64
2022/12/05 00:26:54;;;;;;;;;;;5.90;99.90;;;;;;5023882;28;19929;-64
2022/12/05 00:29:19;;;;;;;;;;;5.80;99.90;;;;;;5014282;28;20279;-63
2022/12/05 00:31:45;;;;;;;;;;;5.90;99.90;;;;;;5016527;28;19925;-63
2022/12/05 00:34:11;;;;;;;;;;;5.90;99.90;;;;;;5012238;28;20397;-65
2022/12/05 00:36:36;;;;;;;;;;;5.90;99.90;;;;;;5014731;28;20336;-65
2022/12/05 00:39:04;;;;;;;;;;;5.90;99.90;;;;;;5021303;28;20331;-66
2022/12/05 00:41:30;;;;;;;;;;;5.90;99.90;;;;;;5025376;28;20016;-64
2022/12/05 00:43:58;;;;;;;;;;;5.90;99.90;;;;;;5013475;28;20011;-65
2022/12/05 00:46:24;;;;;;;;;;;5.90;99.90;;;;;;5019991;28;20044;-66
2022/12/05 00:48:51;;;;;;;;;;;5.90;99.90;;;;;;5020436;28;20427;-64
2022/12/05 00:51:18;;;;;;;;;;;5.90;99.90;;;;;;5020683;28;19921;-64
2022/12/05 00:53:44;;;;;;;;;;;5.90;99.90;;;;;;5026058;28;20426;-64
2022/12/05 00:56:12;;;;;;;;;;;5.90;99.90;;;;;;5014441;28;19921;-64
2022/12/05 00:58:37;;;;;;;;;;;5.90;99.90;;;;;;5026894;28;20035;-64
2022/12/05 01:01:08;;;;;;;;;;;5.90;99.90;;;;;;5025390;28;20944;-64
2022/12/05 01:03:34;;;;;;;;;;;6.00;99.90;;;;;;5017300;28;19967;-64
2022/12/05 01:06:00;;;;;;;;;;;6.00;99.90;;;;;;5018806;28;19921;-65
2022/12/05 01:08:26;;;;;;;;;;;6.00;99.90;;;;;;5012264;28;19921;-65
2022/12/05 01:10:52;;;;;;;;;;;6.00;99.90;;;;;;5010979;28;20012;-64
2022/12/05 01:13:18;;;;;;;;;;;6.00;99.90;;;;;;5028810;28;20115;-64
2022/12/05 01:15:43;;;;;;;;;;;6.10;99.90;;;;;;5010862;28;19983;-64
2022/12/05 01:18:09;;;;;;;;;;;6.10;99.90;;;;;;5023960;28;19921;-64
2022/12/05 01:20:37;;;;;;;;;;;6.10;99.90;;;;;;5025124;28;20328;-64
2022/12/05 01:23:03;;;;;;;;;;;6.10;99.90;;;;;;5023818;28;19921;-64
2022/12/05 01:25:28;;;;;;;;;;;6.10;99.90;;;;;;5014329;28;19975;-64
2022/12/05 01:27:54;;;;;;;;;;;6.10;99.90;;;;;;5017083;28;19991;-64
2022/12/05 01:30:19;;;;;;;;;;;6.10;99.90;;;;;;5016005;28;19929;-65
2022/12/05 01:32:45;;;;;;;;;;;6.10;99.90;;;;;;5019134;28;19920;-64
2022/12/05 01:35:11;;;;;;;;;;;6.10;99.90;;;;;;5023728;28;19922;-64
2022/12/05 01:37:36;;;;;;;;;;;6.10;99.90;;;;;;5023313;28;20007;-64
2022/12/05 01:40:02;;;;;;;;;;;6.10;99.90;;;;;;5031284;28;19921;-64
2022/12/05 01:42:28;;;;;;;;;;;6.10;99.90;;;;;;5018524;28;19933;-64
2022/12/05 01:44:53;;;;;;;;;;;6.10;99.90;;;;;;5027589;28;19928;-64
2022/12/05 01:47:27;;;;;;;;;;;6.20;99.90;;;;;;5031944;28;19925;-64
2022/12/05 01:49:53;;;;;;;;;;;6.10;99.90;;;;;;5020659;28;19921;-64
2022/12/05 01:52:20;;;;;;;;;;;6.10;99.90;;;;;;5017659;28;19925;-65
2022/12/05 01:54:47;;;;;;;;;;;6.10;99.90;;;;;;5031153;28;19928;-64
2022/12/05 01:57:13;;;;;;;;;;;6.10;99.90;;;;;;5031684;28;19921;-64
2022/12/05 01:59:42;;;;;;;;;;;6.10;99.90;;;;;;5030114;28;20384;-64
2022/12/05 02:02:07;;;;;;;;;;;6.10;99.90;;;;;;5018361;28;19927;-64
2022/12/05 02:04:36;;;;;;;;;;;6.20;99.90;;;;;;5024245;28;20394;-64
2022/12/05 02:07:02;;;;;;;;;;;6.20;99.90;;;;;;5028525;28;20403;-64
2022/12/05 02:09:27;;;;;;;;;;;6.20;99.90;;;;;;5017941;28;19925;-64
2022/12/05 02:11:54;;;;;;;;;;;6.20;99.90;;;;;;5020951;28;19921;-64
2022/12/05 02:14:32;;;;;;;;;;;6.20;99.90;;;;;;5026598;28;19929;-64
2022/12/05 02:16:58;;;;;;;;;;;6.20;99.90;;;;;;5015463;28;19926;-64
2022/12/05 02:19:23;;;;;;;;;;;6.20;99.90;;;;;;5028135;28;19947;-65
2022/12/05 02:21:59;;;;;;;;;;;6.20;99.90;;;;;;5023313;28;20106;-64
2022/12/05 02:24:40;;;;;;;;;;;6.30;99.90;;;;;;5021573;28;19921;-64
2022/12/05 02:27:05;;;;;;;;;;;6.30;99.90;;;;;;5018030;28;19986;-64
2022/12/05 02:29:50;;;;;;;;;;;6.30;99.90;;;;;;5017486;28;19957;-64
2022/12/05 02:32:27;;;;;;;;;;;6.30;99.90;;;;;;5026182;28;20297;-64
2022/12/05 02:35:08;;;;;;;;;;;6.30;99.90;;;;;;5029541;28;19921;-64
2022/12/05 02:37:36;;;;;;;;;;;6.30;99.90;;;;;;5012641;28;19928;-65
2022/12/05 02:40:07;;;;;;;;;;;6.30;99.90;;;;;;5020497;28;19922;-64
2022/12/05 02:42:38;;;;;;;;;;;6.30;99.90;;;;;;5018498;28;19924;-64
2022/12/05 02:45:08;;;;;;;;;;;6.30;99.90;;;;;;5024213;28;20455;-64
2022/12/05 02:47:36;;;;;;;;;;;6.30;99.90;;;;;;5015095;28;20036;-64
2022/12/05 02:50:02;;;;;;;;;;;6.30;99.90;;;;;;5019441;28;20240;-64
2022/12/05 02:52:29;;;;;;;;;;;6.30;99.90;;;;;;5020761;28;19925;-64
2022/12/05 02:54:55;;;;;;;;;;;6.30;99.90;;;;;;5022686;28;20414;-64
2022/12/05 02:57:20;;;;;;;;;;;6.40;99.90;;;;;;5013463;28;20024;-64
2022/12/05 02:59:46;;;;;;;;;;;6.30;99.90;;;;;;5027523;28;20015;-64
2022/12/05 03:02:25;;;;;;;;;;;6.40;99.90;;;;;;5028639;28;20015;-66
2022/12/05 03:04:51;;;;;;;;;;;6.30;99.90;;;;;;5014640;28;19921;-66
2022/12/05 03:07:18;;;;;;;;;;;6.40;99.90;;;;;;5019374;28;19925;-66
2022/12/05 03:09:50;;;;;;;;;;;6.40;99.90;;;;;;5016405;28;19936;-66
2022/12/05 03:12:25;;;;;;;;;;;6.40;99.90;;;;;;5030892;28;20499;-67
2022/12/05 03:15:06;;;;;;;;;;;6.40;99.90;;;;;;5028024;28;19944;-67
2022/12/05 03:17:34;;;;;;;;;;;6.40;99.90;;;;;;5017271;28;19978;-66
2022/12/05 03:20:19;;;;;;;;;;;6.40;99.90;;;;;;5019872;28;19921;-67
2022/12/05 03:22:44;;;;;;;;;;;6.40;99.90;;;;;;5010877;28;20020;-66
2022/12/05 03:25:10;;;;;;;;;;;6.40;99.90;;;;;;5021575;28;20023;-66
2022/12/05 03:27:56;;;;;;;;;;;6.40;99.90;;;;;;5029086;28;19917;-66
2022/12/05 03:30:22;;;;;;;;;;;6.40;99.90;;;;;;5025748;28;20300;-67
2022/12/05 03:32:50;;;;;;;;;;;6.40;99.90;;;;;;5017144;28;20610;-66
2022/12/05 03:35:34;;;;;;;;;;;6.50;99.90;;;;;;5021788;28;20013;-67
2022/12/05 03:38:17;;;;;;;;;;;6.40;99.90;;;;;;5020541;28;19952;-66
2022/12/05 03:40:43;;;;;;;;;;;6.40;99.90;;;;;;5029707;28;20586;-67
2022/12/05 03:43:11;;;;;;;;;;;6.40;99.90;;;;;;5024905;28;20013;-67
2022/12/05 03:45:53;;;;;;;;;;;6.40;99.90;;;;;;5023196;28;19921;-66
2022/12/05 03:48:25;;;;;;;;;;;6.40;99.90;;;;;;5027657;28;19921;-66
2022/12/05 03:50:52;;;;;;;;;;;6.40;99.90;;;;;;5018065;28;20043;-66
2022/12/05 03:53:26;;;;;;;;;;;6.40;99.90;;;;;;5024774;28;19978;-66
2022/12/05 03:56:00;;;;;;;;;;;6.50;99.90;;;;;;5019269;28;19921;-66
2022/12/05 03:58:29;;;;;;;;;;;6.40;99.90;;;;;;5023279;28;19928;-66
2022/12/05 04:00:57;;;;;;;;;;;6.50;99.90;;;;;;5014685;28;19921;-66
2022/12/05 04:03:39;;;;;;;;;;;6.50;99.90;;;;;;5020087;28;19929;-66
2022/12/05 04:06:09;;;;;;;;;;;6.50;99.90;;;;;;5022014;28;19921;-66
2022/12/05 04:08:37;;;;;;;;;;;6.50;99.90;;;;;;5026766;28;19943;-66
2022/12/05 04:11:09;;;;;;;;;;;6.50;99.90;;;;;;5018067;28;19925;-64
2022/12/05 04:13:40;;;;;;;;;;;6.50;99.90;;;;;;5017088;28;19922;-64
2022/12/05 04:19:16;;;;;;;;;;;6.50;99.90;;;;;;5018820;28;20048;-66
2022/12/05 04:21:50;;;;;;;;;;;6.50;99.90;;;;;;5009508;28;19928;-68
2022/12/05 04:27:09;;;;;;;;;;;6.50;99.90;;;;;;5014735;28;20748;-66
2022/12/05 04:29:40;;;;;;;;;;;6.50;99.90;;;;;;5016566;28;19928;-66
2022/12/05 04:32:07;;;;;;;;;;;6.50;99.90;;;;;;5021589;28;19925;-66
2022/12/05 04:34:34;;;;;;;;;;;6.50;99.90;;;;;;5027848;28;20284;-66
2022/12/05 04:37:05;;;;;;;;;;;6.50;99.90;;;;;;5028924;28;19931;-69
2022/12/05 04:39:49;;;;;;;;;;;6.50;99.90;;;;;;5022186;28;19929;-66
2022/12/05 04:42:16;;;;;;;;;;;6.50;99.90;;;;;;5014714;28;19921;-66
2022/12/05 04:44:48;;;;;;;;;;;6.50;99.90;;;;;;5014743;28;19925;-66
2022/12/05 04:47:15;;;;;;;;;;;6.50;99.90;;;;;;5012994;28;19921;-69
2022/12/05 04:49:42;;;;;;;;;;;6.50;99.90;;;;;;5019630;28;19925;-66
2022/12/05 04:52:09;;;;;;;;;;;6.50;99.90;;;;;;5016863;28;19928;-66
2022/12/05 04:54:42;;;;;;;;;;;6.50;99.90;;;;;;5021886;28;20381;-66
2022/12/05 04:57:13;;;;;;;;;;;6.50;99.90;;;;;;5016635;28;20365;-67
2022/12/05 04:59:38;;;;;;;;;;;6.50;99.90;;;;;;5028438;28;19936;-66
2022/12/05 05:02:06;;;;;;;;;;;6.50;99.90;;;;;;5014599;28;19929;-68
2022/12/05 05:04:43;;;;;;;;;;;6.50;99.90;;;;;;5025090;28;19925;-66
2022/12/05 05:07:10;;;;;;;;;;;6.50;99.90;;;;;;5028186;28;20281;-66
2022/12/05 05:09:36;;;;;;;;;;;6.50;99.90;;;;;;5012199;28;19921;-66
2022/12/05 05:12:01;;;;;;;;;;;6.50;99.90;;;;;;5013508;28;20439;-67
2022/12/05 05:14:27;;;;;;;;;;;6.50;99.90;;;;;;5024510;28;19972;-66
2022/12/05 05:16:52;;;;;;;;;;;6.50;99.90;;;;;;5016296;28;19921;-66
2022/12/05 05:19:18;;;;;;;;;;;6.50;99.90;;;;;;5024086;28;20021;-66
2022/12/05 05:21:43;;;;;;;;;;;6.50;99.90;;;;;;5013939;28;20391;-66
2022/12/05 05:24:10;;;;;;;;;;;6.50;99.90;;;;;;5028274;28;20365;-66
2022/12/05 05:26:37;;;;;;;;;;;6.50;99.90;;;;;;5021366;28;20560;-66
2022/12/05 05:29:03;;;;;;;;;;;6.50;99.90;;;;;;5016982;28;19947;-66
2022/12/05 05:31:28;;;;;;;;;;;6.50;99.90;;;;;;5027845;28;19925;-66
2022/12/05 05:33:55;;;;;;;;;;;6.50;99.90;;;;;;5030726;28;20443;-66
2022/12/05 05:36:21;;;;;;;;;;;6.50;99.90;;;;;;5016253;28;19929;-66
2022/12/05 05:38:48;;;;;;;;;;;6.50;99.90;;;;;;5026463;28;19921;-66
2022/12/05 05:41:15;;;;;;;;;;;6.60;99.90;;;;;;5032146;28;19925;-66
2022/12/05 05:43:40;;;;;;;;;;;6.50;99.90;;;;;;5016656;28;19921;-66
2022/12/05 05:46:06;;;;;;;;;;;6.60;99.90;;;;;;5017179;28;19921;-66
2022/12/05 05:48:32;;;;;;;;;;;6.50;99.90;;;;;;5027618;28;19935;-66
2022/12/05 05:50:58;;;;;;;;;;;6.60;99.90;;;;;;5019188;28;20377;-66
2022/12/05 05:53:24;;;;;;;;;;;6.60;99.90;;;;;;5017357;28;19928;-66
2022/12/05 05:55:49;;;;;;;;;;;6.60;99.90;;;;;;5027755;28;19925;-64
2022/12/05 05:58:15;;;;;;;;;;;6.60;99.90;;;;;;5024837;28;19999;-64
2022/12/05 06:00:40;;;;;;;;;;;6.60;99.90;;;;;;5016550;28;19921;-64
2022/12/05 06:03:06;;;;;;;;;;;6.60;99.90;;;;;;5023665;28;19969;-64
2022/12/05 06:05:31;;;;;;;;;;;6.60;99.90;;;;;;5030923;28;19929;-65
2022/12/05 06:07:57;;;;;;;;;;;6.60;99.90;;;;;;5022279;28;19979;-64
2022/12/05 06:10:23;;;;;;;;;;;6.60;99.90;;;;;;5017420;28;19945;-64
2022/12/05 06:12:48;;;;;;;;;;;6.60;99.90;;;;;;5026086;28;20350;-65
2022/12/05 06:15:14;;;;;;;;;;;6.60;99.90;;;;;;5019550;28;19922;-65
2022/12/05 06:17:39;;;;;;;;;;;6.60;99.90;;;;;;5024649;28;20013;-64
2022/12/05 06:20:05;;;;;;;;;;;6.60;99.90;;;;;;5030086;28;19921;-64
2022/12/05 06:22:31;;;;;;;;;;;6.60;99.90;;;;;;5015425;28;19925;-65
2022/12/05 06:24:57;;;;;;;;;;;6.60;99.90;;;;;;5025542;28;19928;-65
2022/12/05 06:27:22;;;;;;;;;;;6.60;99.90;;;;;;5029817;28;19921;-63
2022/12/05 06:29:48;;;;;;;;;;;6.60;99.90;;;;;;5020799;28;19925;-65
2022/12/05 06:32:13;;;;;;;;;;;6.60;99.90;;;;;;5026916;28;20381;-64
2022/12/05 06:34:39;;;;;;;;;;;6.60;99.90;;;;;;5030614;28;19921;-66
2022/12/05 06:37:04;;;;;;;;;;;6.70;99.90;;;;;;5018701;28;20361;-66
2022/12/05 06:39:30;;;;;;;;;;;6.60;99.90;;;;;;5024207;28;19921;-66
2022/12/05 06:41:56;;;;;;;;;;;6.60;99.90;;;;;;5029151;28;19925;-63
2022/12/05 06:44:23;;;;;;;;;;;6.60;99.90;;;;;;5023897;28;20008;-65
2022/12/05 06:46:49;;;;;;;;;;;6.60;99.90;;;;;;5030055;28;20627;-64
2022/12/05 06:49:14;;;;;;;;;;;6.60;99.90;;;;;;5015125;28;19921;-64
2022/12/05 06:51:40;;;;;;;;;;;6.60;99.90;;;;;;5025466;28;19921;-64
2022/12/05 06:54:05;;;;;;;;;;;6.60;99.90;;;;;;5013705;28;20368;-64
2022/12/05 06:56:31;;;;;;;;;;;6.60;99.90;;;;;;5018332;28;20297;-64
2022/12/05 06:58:56;;;;;;;;;;;6.60;99.90;;;;;;5023208;28;20141;-65
2022/12/05 07:01:39;;;;;;;;;;;6.60;99.90;;;;;;5027290;28;19975;-64
2022/12/05 07:04:15;;;;;;;;;;;6.60;99.90;;;;;;5029575;28;19921;-64
2022/12/05 07:06:42;;;;;;;;;;;6.60;99.90;;;;;;5021415;28;20276;-64
2022/12/05 07:09:07;;;;;;;;;;;6.60;99.90;;;;;;5028950;28;20336;-64
2022/12/05 07:11:33;;;;;;;;;;;6.60;99.90;;;;;;5023278;28;19963;-64
2022/12/05 07:13:59;;;;;;;;;;;6.60;99.90;;;;;;5021453;28;20008;-64
2022/12/05 07:16:24;;;;;;;;;;;6.60;99.90;;;;;;5032323;28;19921;-64
2022/12/05 07:18:50;;;;;;;;;;;6.60;99.90;;;;;;5021208;28;19951;-65
2022/12/05 07:21:16;;;;;;;;;;;6.60;99.90;;;;;;5016252;28;19929;-65
2022/12/05 07:23:43;;;;;;;;;;;6.60;99.90;;;;;;5018927;28;19929;-65
2022/12/05 07:26:10;;;;;;;;;;;6.60;99.90;;;;;;5021538;28;19925;-65
2022/12/05 07:28:36;;;;;;;;;;;6.60;99.90;;;;;;5014573;28;20349;-66
2022/12/05 07:31:03;;;;;;;;;;;6.60;99.90;;;;;;5023824;28;19979;-64
2022/12/05 07:33:29;;;;;;;;;;;6.60;99.90;;;;;;5026054;28;19987;-65
2022/12/05 07:36:01;;;;;;;;;;;6.60;99.90;;;;;;5019002;28;19921;-65
2022/12/05 07:38:28;;;;;;;;;;;6.60;99.90;;;;;;5013670;28;19921;-65
2022/12/05 07:40:53;;;;;;;;;;;6.60;99.90;;;;;;5016565;28;20016;-65
2022/12/05 07:43:19;;;;;;;;;;;6.60;99.90;;;;;;5016344;28;20273;-65
2022/12/05 07:45:45;;;;;;;;;;;6.60;99.90;;;;;;5016787;28;19972;-67
2022/12/05 07:48:10;;;;;;;;;;;6.60;99.90;;;;;;5026985;28;19921;-65
2022/12/05 07:50:36;;;;;;;;;;;6.60;99.90;;;;;;5023461;28;19921;-65
2022/12/05 07:53:01;;;;;;;;;;;6.60;99.90;;;;;;5025179;28;19968;-65
2022/12/05 07:55:27;;;;;;;;;;;6.60;99.90;;;;;;5012720;28;19921;-64
2022/12/05 07:57:52;;;;;;;;;;;6.60;99.90;;;;;;5022547;28;19920;-65
2022/12/05 08:00:18;;;;;;;;;;;6.60;99.90;;;;;;5022303;28;20385;-64
2022/12/05 08:02:44;;;;;;;;;;;6.70;99.90;;;;;;5026554;28;19925;-64
2022/12/05 08:05:09;;;;;;;;;;;6.60;99.90;;;;;;5027944;28;19928;-64
2022/12/05 08:07:35;;;;;;;;;;;6.70;99.90;;;;;;5023900;28;20055;-64
2022/12/05 08:10:00;;;;;;;;;;;6.60;99.90;;;;;;5025326;28;19979;-64
2022/12/05 08:12:26;;;;;;;;;;;6.70;99.90;;;;;;5023547;28;19925;-64
2022/12/05 08:14:51;;;;;;;;;;;6.70;99.90;;;;;;5025143;28;20012;-64
2022/12/05 08:17:17;;;;;;;;;;;6.70;99.90;;;;;;5017350;28;20376;-64
2022/12/05 08:19:43;;;;;;;;;;;6.80;99.90;;;;;;5025547;28;19925;-64
2022/12/05 08:22:08;;;;;;;;;;;6.70;99.90;;;;;;5024041;28;19980;-64
2022/12/05 08:24:34;;;;;;;;;;;6.70;99.90;;;;;;5016383;28;20107;-64
2022/12/05 08:27:00;;;;;;;;;;;6.70;99.90;;;;;;5031426;28;20310;-66
2022/12/05 08:29:25;;;;;;;;;;;6.80;99.90;;;;;;5027107;28;19921;-64
2022/12/05 08:31:51;;;;;;;;;;;6.80;99.90;;;;;;5015583;28;19920;-64
2022/12/05 08:34:18;;;;;;;;;;;6.80;99.90;;;;;;5018841;28;19967;-64
2022/12/05 08:36:44;;;;;;;;;;;6.80;99.90;;;;;;5010343;28;20063;-64
2022/12/05 08:39:13;;;;;;;;;;;6.80;99.90;;;;;;5020520;28;19968;-66
2022/12/05 08:41:45;;;;;;;;;;;6.80;99.90;;;;;;5027306;28;19979;-64
2022/12/05 08:44:15;;;;;;;;;;;6.80;99.90;;;;;;5021971;28;19979;-64
2022/12/05 08:46:40;;;;;;;;;;;6.80;99.90;;;;;;5015110;28;19964;-64
2022/12/05 08:49:06;;;;;;;;;;;6.80;99.90;;;;;;5026920;28;19975;-63
2022/12/05 08:51:32;;;;;;;;;;;6.80;99.90;;;;;;5025898;28;19928;-64
2022/12/05 08:53:58;;;;;;;;;;;6.80;99.90;;;;;;5013341;28;19929;-64
2022/12/05 08:56:23;;;;;;;;;;;6.90;99.90;;;;;;5021260;28;19921;-66
2022/12/05 08:58:49;;;;;;;;;;;6.90;99.90;;;;;;5017618;28;19936;-64
2022/12/05 09:01:16;;;;;;;;;;;6.80;99.90;;;;;;5024852;28;20019;-63
2022/12/05 09:03:41;;;;;;;;;;;6.90;99.90;;;;;;5028606;28;20391;-64
2022/12/05 09:06:10;;;;;;;;;;;6.80;99.90;;;;;;5031453;28;20013;-64
2022/12/05 09:08:37;;;;;;;;;;;6.90;99.90;;;;;;5015812;28;20339;-64
2022/12/05 09:11:06;;;;;;;;;;;6.90;99.90;;;;;;5027584;28;19990;-64
2022/12/05 09:13:32;;;;;;;;;;;6.90;99.90;;;;;;5030405;28;19927;-64
2022/12/05 09:15:57;;;;;;;;;;;6.90;99.90;;;;;;5034344;28;20296;-64
2022/12/05 09:18:23;;;;;;;;;;;6.90;99.90;;;;;;5013984;28;19952;-64
2022/12/05 09:20:48;;;;;;;;;;;6.90;99.90;;;;;;5022512;28;20339;-64
2022/12/05 09:23:14;;;;;;;;;;;6.90;99.90;;;;;;5025305;28;19992;-64
2022/12/05 09:25:39;;;;;;;;;;;6.90;99.90;;;;;;5032503;28;20039;-64
2022/12/05 09:28:05;;;;;;;;;;;6.90;99.90;;;;;;5021014;28;20376;-65
2022/12/05 09:30:30;;;;;;;;;;;7.00;99.90;;;;;;5025853;28;19917;-66
2022/12/05 09:32:56;;;;;;;;;;;7.00;99.90;;;;;;5033819;28;19925;-64
2022/12/05 09:35:22;;;;;;;;;;;7.00;99.90;;;;;;5021372;28;20305;-64
2022/12/05 09:37:47;;;;;;;;;;;7.00;99.90;;;;;;5030054;28;19960;-64
2022/12/05 09:40:16;;;;;;;;;;;7.00;99.90;;;;;;5013869;28;20004;-64
2022/12/05 09:42:48;;;;;;;;;;;7.00;99.90;;;;;;5023088;28;20289;-64
2022/12/05 09:45:33;;;;;;;;;;;7.00;99.90;;;;;;5027058;28;19928;-64
2022/12/05 09:48:03;;;;;;;;;;;7.00;99.90;;;;;;5024049;28;20493;-64
2022/12/05 09:50:48;;;;;;;;;;;7.00;99.90;;;;;;5020699;28;20039;-64
2022/12/05 09:53:27;;;;;;;;;;;7.00;99.90;;;;;;5020649;28;19925;-64
2022/12/05 09:56:08;;;;;;;;;;;7.00;99.90;;;;;;5020403;28;19932;-64
2022/12/05 09:58:44;;;;;;;;;;;7.10;99.90;;;;;;5020190;28;19936;-64
2022/12/05 10:01:24;;;;;;;;;;;7.00;99.90;;;;;;5026906;28;19982;-64
2022/12/05 10:03:50;;;;;;;;;;;7.00;99.90;;;;;;5018814;28;20316;-64
2022/12/05 10:06:27;;;;;;;;;;;7.10;99.90;;;;;;5016898;28;20019;-63
2022/12/05 10:08:55;;;;;;;;;;;7.10;99.90;;;;;;5025682;28;20363;-63
2022/12/05 10:11:29;;;;;;;;;;;7.10;99.90;;;;;;5031827;28;20012;-64
2022/12/05 10:14:05;;;;;;;;;;;7.10;99.90;;;;;;5035852;28;19928;-63
2022/12/05 10:16:32;;;;;;;;;;;7.10;99.90;;;;;;5017282;28;19925;-64
2022/12/05 10:19:01;;;;;;;;;;;7.10;99.90;;;;;;5030064;28;19956;-64
2022/12/05 10:21:36;;;;;;;;;;;7.20;99.90;;;;;;5018941;28;20265;-66
2022/12/05 10:24:04;;;;;;;;;;;7.10;99.90;;;;;;5040018;28;19917;-66
2022/12/05 10:26:36;;;;;;;;;;;7.10;99.90;;;;;;5031638;28;19921;-66
2022/12/05 10:29:08;;;;;;;;;;;7.20;99.90;;;;;;5039874;28;20299;-66
2022/12/05 10:31:36;;;;;;;;;;;7.10;99.90;;;;;;5021120;28;20369;-64
2022/12/05 10:34:03;;;;;;;;;;;7.10;99.90;;;;;;5040955;28;20339;-64
2022/12/05 10:36:29;;;;;;;;;;;7.10;99.90;;;;;;5025578;28;19925;-64
2022/12/05 10:38:56;;;;;;;;;;;7.10;99.90;;;;;;5017968;28;19990;-66
2022/12/05 10:41:21;;;;;;;;;;;7.10;99.90;;;;;;5020791;28;20015;-66
2022/12/05 10:43:48;;;;;;;;;;;7.20;99.90;;;;;;5020525;28;20009;-65
2022/12/05 10:46:14;;;;;;;;;;;7.10;99.90;;;;;;5026675;28;19963;-65
2022/12/05 10:48:40;;;;;;;;;;;7.10;99.90;;;;;;5018262;28;19985;-65
2022/12/05 10:51:10;;;;;;;;;;;7.20;99.90;;;;;;5015004;28;19929;-66
2022/12/05 10:53:43;;;;;;;;;;;7.20;99.90;;;;;;5010876;28;19921;-66
2022/12/05 10:56:27;;;;;;;;;;;7.20;99.90;;;;;;5017199;28;20023;-66
2022/12/05 10:58:56;;;;;;;;;;;7.20;99.90;;;;;;5022664;28;19979;-66
2022/12/05 11:01:22;;;;;;;;;;;7.30;99.90;;;;;;5025475;28;20384;-65
2022/12/05 11:03:54;;;;;;;;;;;7.20;99.90;;;;;;5039400;28;19975;-65
2022/12/05 11:06:25;;;;;;;;;;;7.30;99.90;;;;;;5029362;28;19921;-66
2022/12/05 11:08:58;;;;;;;;;;;7.30;99.90;;;;;;5032452;28;20016;-65
2022/12/05 11:11:28;;;;;;;;;;;7.30;99.90;;;;;;5041753;28;19921;-65
2022/12/05 11:13:55;;;;;;;;;;;7.30;99.90;;;;;;5046283;28;19925;-63
2022/12/05 11:16:25;;;;;;;;;;;7.30;99.90;;;;;;5019870;28;19925;-63
2022/12/05 11:18:52;;;;;;;;;;;7.30;99.90;;;;;;5039057;28;19924;-64
2022/12/05 11:21:18;;;;;;;;;;;7.30;99.90;;;;;;5028662;28;19925;-65
2022/12/05 11:23:44;;;;;;;;;;;7.30;99.90;;;;;;5030632;28;20368;-65
2022/12/05 11:26:28;;;;;;;;;;;7.30;99.90;;;;;;5029147;28;19921;-65
2022/12/05 11:28:54;;;;;;;;;;;7.30;99.90;;;;;;5042824;28;20434;-65
2022/12/05 11:31:21;;;;;;;;;;;7.30;99.90;;;;;;5037456;28;19921;-65
2022/12/05 11:34:13;;;;;;;;;;;7.30;99.90;;;;;;5021583;28;19925;-66
2022/12/05 11:36:44;;;;;;;;;;;7.30;99.90;;;;;;5012607;28;19925;-66
2022/12/05 11:39:11;;;;;;;;;;;7.30;99.90;;;;;;5025055;28;19967;-64
2022/12/05 11:41:47;;;;;;;;;;;7.30;99.90;;;;;;5031665;28;19967;-63
2022/12/05 11:44:16;;;;;;;;;;;7.20;99.90;;;;;;5021630;28;19922;-64
2022/12/05 11:46:51;;;;;;;;;;;7.20;99.90;;;;;;5025889;28;19917;-64
2022/12/05 11:49:25;;;;;;;;;;;7.30;99.90;;;;;;5020280;28;20032;-65
2022/12/05 11:52:02;;;;;;;;;;;7.20;99.90;;;;;;5014554;28;20525;-64
2022/12/05 11:54:31;;;;;;;;;;;7.20;99.90;;;;;;5021520;28;19932;-64
2022/12/05 11:56:58;;;;;;;;;;;7.20;99.90;;;;;;5020797;28;19928;-64
2022/12/05 11:59:38;;;;;;;;;;;7.20;99.90;;;;;;5015649;28;19925;-64
2022/12/05 12:02:17;;;;;;;;;;;7.20;99.90;;;;;;5020824;28;19925;-64
2022/12/05 12:04:51;;;;;;;;;;;7.10;99.90;;;;;;5019860;28;20707;-67
2022/12/05 12:07:32;;;;;;;;;;;7.20;99.90;;;;;;5026329;28;19917;-64
2022/12/05 12:10:10;;;;;;;;;;;7.20;99.90;;;;;;5017460;28;20092;-64
2022/12/05 12:12:42;;;;;;;;;;;7.20;99.90;;;;;;5029242;28;19970;-64
2022/12/05 12:15:10;;;;;;;;;;;7.10;99.90;;;;;;5026586;28;19921;-64
2022/12/05 12:17:41;;;;;;;;;;;7.10;99.90;;;;;;5019810;28;19929;-64
2022/12/05 12:20:10;;;;;;;;;;;7.10;99.90;;;;;;5026531;28;19964;-64
2022/12/05 12:22:48;;;;;;;;;;;7.10;99.90;;;;;;5019083;28;19917;-64
2022/12/05 12:25:32;;;;;;;;;;;7.20;99.90;;;;;;5016983;28;20713;-64
2022/12/05 12:28:06;;;;;;;;;;;7.10;99.90;;;;;;5012300;28;19975;-67
2022/12/05 12:30:50;;;;;;;;;;;7.20;99.90;;;;;;5039291;28;19972;-65
2022/12/05 12:33:27;;;;;;;;;;;7.10;99.90;;;;;;5014788;28;20479;-64
2022/12/05 12:35:56;;;;;;;;;;;7.20;99.90;;;;;;5028898;28;19917;-64
2022/12/05 12:38:21;;;;;;;;;;;7.10;99.90;;;;;;5020995;28;19972;-64
2022/12/05 12:40:54;;;;;;;;;;;7.10;99.90;;;;;;5015676;28;19953;-64
2022/12/05 12:43:38;;;;;;;;;;;7.10;99.90;;;;;;5031476;28;19932;-64
2022/12/05 12:46:16;;;;;;;;;;;7.10;99.90;;;;;;5020691;28;19968;-65
2022/12/05 12:48:54;;;;;;;;;;;7.10;99.90;;;;;;5047342;28;20023;-64
2022/12/05 12:51:20;;;;;;;;;;;7.00;99.90;;;;;;5028892;28;20015;-64
2022/12/05 12:53:54;;;;;;;;;;;7.10;99.90;;;;;;5028598;28;20484;-66
2022/12/05 12:56:23;;;;;;;;;;;7.10;99.90;;;;;;5030206;28;19934;-66
2022/12/05 12:58:57;;;;;;;;;;;7.10;99.90;;;;;;5008337;28;19933;-66
2022/12/05 13:01:44;;;;;;;;;;;7.10;99.90;;;;;;5008458;28;19926;-66
2022/12/05 13:04:14;;;;;;;;;;;7.10;99.90;;;;;;5009481;28;19921;-65
2022/12/05 13:06:40;;;;;;;;;;;7.10;99.90;;;;;;5007975;28;20032;-65
2022/12/05 13:09:14;;;;;;;;;;;7.10;99.90;;;;;;5009129;28;20068;-64
2022/12/05 13:11:43;;;;;;;;;;;7.00;99.90;;;;;;5008278;28;20293;-64
2022/12/05 13:14:11;;;;;;;;;;;7.00;99.90;;;;;;5006467;28;19936;-65
2022/12/05 13:16:39;;;;;;;;;;;7.00;99.90;;;;;;5021669;28;20221;-64
2022/12/05 13:19:05;;;;;;;;;;;7.00;99.90;;;;;;5028678;28;19921;-65
2022/12/05 13:21:30;;;;;;;;;;;7.00;99.90;;;;;;5031960;28;19925;-65
2022/12/05 13:24:02;;;;;;;;;;;7.00;99.90;;;;;;5019486;28;19963;-65
2022/12/05 13:26:31;;;;;;;;;;;7.00;99.90;;;;;;4917468;28;19926;-65
2022/12/05 13:29:01;;;;;;;;;;;7.00;99.90;;;;;;4891270;28;19934;-65
2022/12/05 13:31:52;;;;;;;;;;;7.00;99.90;;;;;;4945885;27;19925;-64
2022/12/05 13:34:28;;;;;;;;;;;7.00;99.90;;;;;;4989580;28;19935;-64
2022/12/05 13:43:47;;;;;;;0.77;0.77;;;7.00;99.90;;;;;;5104856;27;20343;-64
2022/12/05 13:46:22;;;;;;;1.65;1.17;;;7.00;99.90;;;;;;5085197;28;20607;-64
2022/12/05 13:48:49;;;;;;;0.65;0.65;;;7.00;99.90;;;;;;5085888;28;20040;-64
2022/12/05 13:51:47;;;;;;;0.17;0.17;;;7.00;99.90;;;;;;5085543;28;20032;-64
2022/12/05 13:54:15;;;;;;;0.10;0.10;;;7.00;99.90;;;;;;5026981;28;20063;-63
2022/12/05 13:57:01;;;;;;;0.10;0.10;;;7.00;99.90;;;;;;5066554;28;20048;-64
2022/12/05 14:00:05;;;;;;;0.30;0.30;;;7.00;99.90;;;;;;5073097;28;20049;-64
2022/12/05 14:02:42;;;;;;;0.43;0.43;;;7.00;99.90;;;;;;5065403;28;20140;-64
2022/12/05 14:05:20;;;;;;;0.10;0.10;;;7.00;99.90;;;;;;5064215;28;20059;-64
2022/12/05 14:07:48;;;;;;;0.10;0.10;;;7.00;99.90;;;;;;5068583;28;20041;-63
2022/12/05 14:10:19;;;;;;;14.95;3.00;;;7.00;99.90;;;;;;5065371;28;20080;-63
2022/12/05 14:12:52;;;;;;;0.20;0.20;;;7.00;99.90;;;;;;5080885;28;20040;-63
2022/12/05 14:15:26;;;;;;;0.68;0.68;;;7.00;99.90;;;;;;5075091;28;20051;-63
2022/12/05 14:17:58;;;;;;;1.15;1.05;;;7.00;99.90;;;;;;5072123;28;20112;-63
2022/12/05 14:20:59;;;;;;;0.80;0.80;;;7.00;99.90;;;;;;5047228;28;20060;-66
2022/12/05 14:23:46;;;;;;;0.45;0.45;;;7.00;99.90;;;;;;5064550;28;20052;-63
2022/12/05 14:26:14;;;;;;;0.10;0.10;;;6.90;99.90;;;;;;5080942;28;20052;-63
2022/12/05 14:28:58;;;;;;;0.10;0.10;;;7.00;99.90;;;;;;5068903;28;22157;-67
2022/12/05 14:32:02;;;;;;;0.10;0.10;;;6.90;99.90;;;;;;4982336;28;20133;-64
2022/12/05 14:34:30;;;;;;;0.10;0.10;;;7.00;99.90;;;;;;5040131;28;20452;-65
2022/12/05 14:36:58;;;;;;;0.65;0.65;;;7.00;99.90;;;;;;5040472;28;20071;-65
2022/12/05 14:39:34;;;;;;;0.10;0.10;;;6.90;99.90;;;;;;5038458;28;20033;-66
2022/12/05 14:42:01;;;;;;;0.38;0.38;;;7.00;99.90;;;;;;5040257;28;20053;-63
2022/12/05 14:44:30;;;;;;;0.10;0.10;;;6.90;99.90;;;;;;5040143;28;20056;-64
2022/12/05 14:47:02;;;;;;;0.10;0.10;;;6.90;99.90;;;;;;5039925;28;20131;-64